ADDS METAR Data INFO
IDs: Format: Raw Decoded Include TAF

Data at: 0750 UTC 17 Oct 2017

KFAM 170656Z AUTO 00000KT 10SM CLR 04/03 A3032 RMK AO2 SLP269 T00390033
KFAM 170556Z AUTO 00000KT 10SM CLR 04/03 A3032 RMK AO2 SLP269 T00440033 10128 20044 401780033 58004
KFAM 170456Z AUTO 00000KT 10SM CLR 05/04 A3033 RMK AO2 SLP273 T00500044
KFAM 170356Z AUTO 00000KT 10SM CLR 06/04 A3034 RMK AO2 SLP275 T00610044
KFAM 170256Z AUTO 00000KT 10SM CLR 07/05 A3033 RMK AO2 SLP271 T00670050 51008
KFAM 170156Z AUTO 00000KT 10SM CLR 08/06 A3032 RMK AO2 SLP270 T00780056
KFAM 170056Z AUTO 00000KT 10SM CLR 09/03 A3032 RMK AO2 SLP269 T00940033
KFAM 162356Z AUTO 00000KT 9SM CLR 13/03 A3031 RMK AO2 SLP263 T01280033 10178 20117 56006
KFAM 162256Z AUTO 13003KT 10SM CLR 16/03 A3031 RMK AO2 SLP265 T01610028
KFAM 162156Z AUTO 09004KT 10SM CLR 18/02 A3031 RMK AO2 SLP264 T01780022
KFAM 162056Z AUTO 04006KT 10SM CLR 18/02 A3032 RMK AO2 SLP269 T01780022 56014
KFAM 162036Z AUTO 00000KT 8SM CLR 18/02 A3033 RMK AO2
KFAM 162026Z AUTO VRB03KT 1SM HZ CLR 18/02 A3033 RMK AO2
KFAM 162016Z AUTO 00000KT 9SM CLR 17/02 A3034 RMK AO2
KFAM 162005Z AUTO 00000KT 2 1/2SM HZ CLR 17/02 A3034 RMK AO2 VIS 1V5
KFAM 161956Z AUTO 00000KT 1 3/4SM HZ CLR 17/01 A3034 RMK AO2 SLP274 T01720011
KFAM 161948Z AUTO 30005KT 2SM HZ CLR 17/01 A3034 RMK AO2 VIS 1/2V5
KFAM 161856Z AUTO 33009KT 10SM CLR 17/02 A3036 RMK AO2 SLP282 T01670022
KFAM 161756Z AUTO 36004KT 10SM CLR 16/01 A3040 RMK AO2 SLP294 T01560011 10161 20033 58008
KFAM 161656Z AUTO VRB06KT 10SM CLR 15/03 A3042 RMK AO2 SLP300 T01500033
KFAM 161556Z AUTO 33004KT 10SM CLR 14/04 A3043 RMK AO2 SLP304 T01390039
KFAM 161456Z AUTO VRB05KT 10SM CLR 11/06 A3042 RMK AO2 SLP302 T01110061 53012
KFAM 161356Z AUTO 00000KT 10SM CLR 08/06 A3041 RMK AO2 SLP301 T00780061
KFAM 161256Z AUTO 00000KT 10SM CLR 04/04 A3039 RMK AO2 SLP294 T00440039
KFAM 161156Z AUTO 00000KT 10SM CLR 03/03 A3039 RMK AO2 SLP290 70005 T00330028 10078 20033 51010
KFAM 161056Z AUTO 00000KT 10SM CLR 04/03 A3037 RMK AO2 SLP288 T00390033
KFAM 160956Z AUTO 00000KT 10SM CLR 04/04 A3037 RMK AO2 SLP285 T00440039
KFAM 160856Z AUTO 00000KT 10SM CLR 04/04 A3036 RMK AO2 SLP280 T00440039 50005
KFAM 160756Z AUTO 00000KT 10SM CLR 06/05 A3036 RMK AO2 SLP281 T00560050
KFAM 160656Z AUTO 00000KT 10SM CLR 06/05 A3035 RMK AO2 SLP279 T00560050
KFAM 160556Z AUTO 00000KT 10SM CLR 08/06 A3034 RMK AO2 SLP275 T00780056 10139 20078 402390078 51006
KFAM 160456Z AUTO 36003KT 10SM CLR 08/06 A3034 RMK AO2 SLP275 T00830056
KFAM 160356Z AUTO 33003KT 10SM CLR 10/06 A3034 RMK AO2 SLP273 T01000056
KFAM 160256Z AUTO 34006KT 10SM CLR 11/06 A3032 RMK AO2 SLP269 T01060061 51023
KFAM 160156Z AUTO 33006KT 10SM CLR 12/06 A3030 RMK AO2 SLP262 T01170061
KFAM 160056Z AUTO 33005KT 10SM CLR 12/06 A3029 RMK AO2 SLP253 T01220061
KFAM 152356Z AUTO 32006KT 10SM CLR 14/06 A3025 RMK AO2 SLP243 T01390061 10172 20139 53016
KFAM 152256Z AUTO 32007KT 10SM CLR 16/06 A3024 RMK AO2 SLP233 T01560061
KFAM 152156Z AUTO 32009KT 10SM CLR 17/07 A3023 RMK AO2 SLP229 T01670067
KFAM 152056Z AUTO 33010G17KT 10SM CLR 17/07 A3021 RMK AO2 SLP221 T01720067 55001
KFAM 151956Z AUTO 34010KT 10SM CLR 17/07 A3020 RMK AO2 SLP218 T01670072